Montmelo, Spain
Current Conditions -  °F | °C
As of 4:30 PM on Saturday 25 Oct 2014 (Local Time) from LELL Reporting Station
Clear Clear  
Wind Chill: 77°   Ceiling: Unl
Heat Index: 79°   Visibility: 6mi
Dew Point: 57°   Wind: 9mph
Humidity: 50%   Direction: 110°ESE
Pressure: 30.06"   Gusts: NA
Location:  41.55°N, 2.24°E
Report Text: LELL 251430Z 11008KT 070V140 CAVOK 25/14 Q1018
Loading
Personal Weather Stations






























Interactive Weather Map
Tropical Storm Tracking
New forecast layout! Learn more

10-Day Weather Forecast

Advertisements
Track Severe Weather on mobile